Haines Airport
PAHN : now visible

Airfield :











YOU CAN JOIN US ON...

 
LOGIN :

Register | Disclaimer

   EN    FR    IT 

 









Legend :    VFR   Marginal VFR   IFR   Intensive IFR   Very Intensive IFR
Visi :
Ceiling :
>= 8 km
>= 3000ft
5 to 8 km
1000 to 3000 ft
1500m to 5 km
500 to 1000 ft
800 to 1500m
200 to 500 ft
< 800m
< 200 ft
Symbols :   Thunderstorms  Fog  Heavy snow  Heavy precipitations  Wind > 20 kt






- Airport Elevation : 15 ft
- IATA code : HNS


PAHN - Haines

CURRENT METAR :
  • 082007Z AUTO 26009KT 4SM -FZRA BR OVC017 M02/M03 A3005 RMK AO2 UPE01FZRAB01 P0000 I1000 T10171028 TSNO

EXPIRED METARs :
  • 081954Z AUTO 29009KT 4SM UP BR OVC017 M02/M03 A3005 RMK UPE17B44FZRAB17E44 SLP177 P0001 I1000 T10171028 TSNO VIA AUTODIAL
  • 081950Z AUTO 29010KT 4SM UP BR OVC017 M02/M03 A3005 RMK AO2 UPE17B44FZRAB17E44 P0001 I1000 TSNO
  • 081923Z AUTO 29009KT 3SM -FZRA BR OVC016 M01/M03 A3005 RMK AO2 UPE17FZRAB17 P0000 I1000 T10111028 TSNO
  • 081854Z AUTO 29010KT 4SM UP BR OVC016 M02/M03 A3004 RMK AO2 UPB33 SLP176 P0000 I1001 T10171028 TSNO
  • 081754Z AUTO 29007KT 5SM BR OVC021 M02/M03 A3003 RMK AO2 UPB06E10SNE06 SLP173 P0000 60008 T10171033 11011 21028 58002 TSNO

TAF PAHN
Valid from the 08 at 20:00 until the 09 at 18:00 UTC


081930Z 0820/0918 29010KT 3SM -SN BR OVC015
TEMPO 0820/0822 6SM -FZRA BR SCT015 OVC020
FM090300 30008KT 6SM BR BCFG FEW004 SCT007 OVC015 AMD LTD TO CLD VIS AND WIND



MET'MAP, your aeronautical weather chart ! - Copyright ORBIFLY December 2007 - Disclaimer

ORBIFLY MET'MAP TEAM :

Programming & Development : Alexandra Zaïnal
Concept & original design : Baudouin d'Aumeries
Assistance for programming : Marc-Olivier Méhu
Technical & hardware support : Manuel Goepfert

Contact : metmap@orbifly.com




SOURCES & CREDITS :

   NOAA       Earth
Advisory